createdAt,value
2019-02-08T00:01:08.385Z,26.97
2019-02-08T00:03:38.864Z,29.00
2019-02-08T00:06:09.454Z,26.37
2019-02-08T00:08:41.632Z,26.43
2019-02-08T00:11:12.210Z,26.80
2019-02-08T00:13:42.699Z,26.87
2019-02-08T00:16:13.371Z,28.30
2019-02-08T00:18:57.386Z,27.30
2019-02-08T00:21:27.955Z,29.40
2019-02-08T00:23:58.432Z,29.63
2019-02-08T00:26:28.941Z,28.30
2019-02-08T00:28:59.457Z,29.60
2019-02-08T00:31:30.295Z,28.67
2019-02-08T00:34:00.811Z,28.10
2019-02-08T00:36:31.291Z,28.90
2019-02-08T00:39:07.996Z,27.73
2019-02-08T00:41:38.465Z,31.77
2019-02-08T00:44:09.054Z,27.87
2019-02-08T00:46:39.525Z,30.00
2019-02-08T00:49:10.036Z,29.90
2019-02-08T00:51:40.532Z,30.60
2019-02-08T00:54:11.041Z,29.47
2019-02-08T00:56:41.527Z,28.80
2019-02-08T00:59:12.278Z,30.20
2019-02-08T01:01:42.865Z,27.77
2019-02-08T01:04:13.412Z,28.53
2019-02-08T01:06:43.924Z,28.83
2019-02-08T01:09:14.579Z,28.53
2019-02-08T01:11:45.129Z,31.87
2019-02-08T01:14:15.635Z,27.90
2019-02-08T01:16:46.152Z,29.17
2019-02-08T01:19:16.929Z,29.67
2019-02-08T01:21:47.451Z,28.50
2019-02-08T01:24:17.934Z,28.07
2019-02-08T01:26:48.445Z,31.17
2019-02-08T01:29:18.963Z,28.40
2019-02-08T01:31:49.445Z,27.50
2019-02-08T01:34:19.917Z,29.10
2019-02-08T01:36:50.419Z,29.47
2019-02-08T01:39:20.917Z,28.63
2019-02-08T01:41:51.405Z,28.20
2019-02-08T01:44:21.979Z,29.27
2019-02-08T01:46:52.460Z,29.30
2019-02-08T01:49:23.116Z,27.30
2019-02-08T01:51:53.624Z,28.63
2019-02-08T01:54:24.146Z,27.93
2019-02-08T01:56:54.621Z,27.40
2019-02-08T01:59:25.129Z,27.40
2019-02-08T02:01:55.719Z,26.77
2019-02-08T02:04:26.236Z,28.67
2019-02-08T02:06:56.775Z,28.20
2019-02-08T02:09:27.298Z,30.77
2019-02-08T02:11:57.775Z,26.50
2019-02-08T02:14:28.291Z,28.70
2019-02-08T02:16:58.830Z,28.20
2019-02-08T02:19:30.368Z,26.70
2019-02-08T02:22:00.850Z,30.53
2019-02-08T02:24:31.427Z,27.80
2019-02-08T02:27:01.936Z,29.00
2019-02-08T02:29:32.473Z,25.27
2019-02-08T02:32:02.984Z,26.00
2019-02-08T02:34:33.521Z,27.23
2019-02-08T02:37:04.109Z,27.53
2019-02-08T02:39:34.729Z,27.53
2019-02-08T02:42:05.653Z,26.17
2019-02-08T02:44:36.133Z,26.97
2019-02-08T02:47:06.644Z,26.37
2019-02-08T02:49:37.128Z,28.10
2019-02-08T02:52:07.893Z,28.87
2019-02-08T02:54:38.404Z,26.90
2019-02-08T02:57:08.883Z,26.43
2019-02-08T02:59:39.494Z,28.30
2019-02-08T03:02:09.995Z,25.97
2019-02-08T03:04:40.513Z,27.23
2019-02-08T03:07:10.993Z,28.30
2019-02-08T03:09:41.565Z,26.37
2019-02-08T03:12:12.045Z,26.20
2019-02-08T03:14:42.551Z,26.90
2019-02-08T03:17:13.023Z,25.70
2019-02-08T03:19:43.531Z,27.80
2019-02-08T03:22:14.014Z,25.43
2019-02-08T03:24:44.527Z,28.70
2019-02-08T03:27:15.007Z,28.13
2019-02-08T03:29:45.518Z,24.90
2019-02-08T03:32:16.053Z,27.77
2019-02-08T03:34:46.557Z,26.73
2019-02-08T03:37:17.041Z,27.53
2019-02-08T03:39:47.682Z,28.90
2019-02-08T03:42:18.162Z,27.00
2019-02-08T03:44:48.766Z,25.47
2019-02-08T03:47:19.253Z,27.30
2019-02-08T03:49:49.762Z,28.07
2019-02-08T03:52:20.236Z,27.73
2019-02-08T03:54:50.743Z,27.47
2019-02-08T03:57:21.246Z,25.50
2019-02-08T03:59:51.792Z,26.87
2019-02-08T04:02:22.295Z,26.80
2019-02-08T04:04:52.839Z,27.37
2019-02-08T04:07:23.491Z,26.47
2019-02-08T04:09:54.079Z,26.90
2019-02-08T04:12:24.656Z,25.17
2019-02-08T04:14:55.159Z,26.47
2019-02-08T04:17:25.679Z,28.50
2019-02-08T04:19:56.158Z,27.10
2019-02-08T04:22:26.667Z,27.67
2019-02-08T04:24:57.174Z,27.47
2019-02-08T04:27:27.713Z,29.10
2019-02-08T04:29:58.290Z,26.00
2019-02-08T04:32:29.168Z,27.40
2019-02-08T04:34:59.665Z,28.60
2019-02-08T04:37:30.185Z,28.70
2019-02-08T04:40:00.658Z,26.60
2019-02-08T04:42:31.124Z,26.73
2019-02-08T04:45:01.637Z,31.00
2019-02-08T04:47:32.115Z,26.30
2019-02-08T04:50:02.612Z,27.97
2019-02-08T04:52:33.094Z,25.00
2019-02-08T04:55:04.867Z,28.70
2019-02-08T04:57:35.424Z,26.60
2019-02-08T05:00:28.222Z,25.87
2019-02-08T05:02:58.835Z,27.40
2019-02-08T05:05:29.457Z,27.83
2019-02-08T05:08:00.112Z,24.77
2019-02-08T05:10:35.314Z,26.50
2019-02-08T05:13:06.370Z,26.07
2019-02-08T05:15:36.915Z,27.70
2019-02-08T05:18:07.577Z,26.67
2019-02-08T05:20:38.071Z,27.43
2019-02-08T05:23:08.600Z,27.10
2019-02-08T05:25:39.090Z,27.73
2019-02-08T05:28:09.595Z,27.70
2019-02-08T05:30:40.072Z,24.57
2019-02-08T05:33:10.584Z,25.67
2019-02-08T05:35:41.065Z,25.90
2019-02-08T05:38:11.571Z,26.73
2019-02-08T05:40:42.084Z,26.67
2019-02-08T05:43:12.554Z,25.93
2019-02-08T05:45:43.149Z,24.63
2019-02-08T05:48:13.628Z,28.67
2019-02-08T05:50:44.128Z,27.53
2019-02-08T05:53:14.668Z,26.80
2019-02-08T05:55:45.165Z,29.60
2019-02-08T05:58:15.645Z,28.40
2019-02-08T06:00:48.793Z,28.07
2019-02-08T06:03:19.303Z,28.70
2019-02-08T06:05:50.439Z,29.87
2019-02-08T06:08:20.975Z,32.50
2019-02-08T06:10:51.556Z,27.63
2019-02-08T06:13:23.598Z,32.10
2019-02-08T06:15:54.102Z,32.00
2019-02-08T06:18:24.643Z,30.77
2019-02-08T06:20:55.226Z,33.20
2019-02-08T06:23:25.706Z,32.57
2019-02-08T06:25:56.271Z,28.70
2019-02-08T06:28:30.284Z,33.30
2019-02-08T06:31:00.825Z,32.87
2019-02-08T06:33:31.335Z,31.47
2019-02-08T06:36:01.870Z,28.63
2019-02-08T06:38:33.902Z,26.23
2019-02-08T06:41:04.385Z,27.17
2019-02-08T06:43:34.875Z,27.07
2019-02-08T06:46:05.843Z,29.67
2019-02-08T06:48:36.346Z,29.97
2019-02-08T06:51:06.889Z,30.40
2019-02-08T06:53:37.364Z,27.20
2019-02-08T06:56:09.533Z,25.60
2019-02-08T06:58:41.650Z,27.60
2019-02-08T07:01:12.002Z,28.40
2019-02-08T07:03:50.421Z,30.97
2019-02-08T07:06:35.767Z,30.87
2019-02-08T07:09:11.088Z,54.50
2019-02-08T07:11:43.215Z,47.70
2019-02-08T07:14:24.454Z,33.80
2019-02-08T07:16:59.533Z,33.87
2019-02-08T07:19:34.391Z,39.50
2019-02-08T07:22:12.888Z,26.90
2019-02-08T07:25:01.269Z,21.53
2019-02-08T07:27:42.163Z,21.83
2019-02-08T07:30:18.099Z,22.13
2019-02-08T07:32:52.923Z,24.33
2019-02-08T07:35:28.027Z,22.93
2019-02-08T07:38:02.084Z,25.50
2019-02-08T07:40:53.965Z,22.80
2019-02-08T07:43:26.565Z,22.67
2019-02-08T07:46:20.360Z,24.10
2019-02-08T07:48:53.014Z,23.20
2019-02-08T07:51:43.679Z,22.33
2019-02-08T07:54:30.923Z,23.03
2019-02-08T07:57:12.216Z,23.20
2019-02-08T07:59:56.602Z,23.10
2019-02-08T08:02:28.826Z,24.17
2019-02-08T08:05:06.772Z,23.00
2019-02-08T08:07:41.737Z,23.87
2019-02-08T08:10:19.817Z,24.37
2019-02-08T08:12:57.841Z,31.30
2019-02-08T08:15:33.330Z,49.00
2019-02-08T08:18:08.431Z,26.70
2019-02-08T08:20:53.193Z,22.80
2019-02-08T08:23:29.777Z,23.70
2019-02-08T08:26:16.090Z,23.73
2019-02-08T08:29:03.402Z,23.20
2019-02-08T08:31:40.190Z,21.70
2019-02-08T08:34:18.304Z,22.63
2019-02-08T08:37:15.983Z,22.90
2019-02-08T08:40:11.074Z,24.13
2019-02-08T08:43:00.936Z,21.27
2019-02-08T08:46:04.608Z,21.83
2019-02-08T08:48:57.372Z,22.33
2019-02-08T08:51:53.687Z,21.50
2019-02-08T08:54:44.107Z,21.90
2019-02-08T08:57:38.563Z,23.30
2019-02-08T09:00:39.231Z,22.47
2019-02-08T09:03:23.160Z,22.87
2019-02-08T09:06:19.524Z,22.17
2019-02-08T09:09:21.452Z,24.20
2019-02-08T09:12:22.447Z,24.37
2019-02-08T09:15:27.683Z,23.70
2019-02-08T09:18:05.274Z,22.87
2019-02-08T09:20:46.026Z,25.57
2019-02-08T09:23:43.357Z,25.83
2019-02-08T09:26:30.441Z,24.27
2019-02-08T09:29:30.945Z,24.47
2019-02-08T09:32:21.010Z,24.80
2019-02-08T09:35:46.077Z,23.80
2019-02-08T09:38:42.052Z,24.57
2019-02-08T09:42:00.639Z,36.70
2019-02-08T09:45:07.644Z,31.57
2019-02-08T09:48:04.362Z,23.27
2019-02-08T09:50:53.686Z,24.93
2019-02-08T09:53:43.557Z,24.40
2019-02-08T09:56:33.038Z,23.67
2019-02-08T09:59:44.306Z,26.10
2019-02-08T10:02:37.283Z,25.47
2019-02-08T10:05:40.928Z,25.50
2019-02-08T10:08:42.968Z,26.67
2019-02-08T10:11:48.600Z,29.40
2019-02-08T10:15:00.242Z,25.97
2019-02-08T10:18:26.654Z,27.90
2019-02-08T10:21:29.091Z,26.83
2019-02-08T10:24:07.409Z,26.97
2019-02-08T10:27:09.759Z,26.17
2019-02-08T10:30:08.871Z,28.03
2019-02-08T10:33:20.239Z,60.33
2019-02-08T10:36:32.876Z,32.40
2019-02-08T10:39:27.430Z,25.80
2019-02-08T10:42:45.256Z,22.77
2019-02-08T10:46:10.276Z,22.80
2019-02-08T10:49:11.243Z,23.37
2019-02-08T10:52:08.725Z,22.90
2019-02-08T10:55:25.162Z,22.57
2019-02-08T10:58:45.656Z,23.83
2019-02-08T11:01:26.783Z,25.43
2019-02-08T11:04:36.388Z,25.17
2019-02-08T11:07:27.546Z,23.87
2019-02-08T11:10:06.040Z,21.60
2019-02-08T11:13:28.381Z,23.83
2019-02-08T11:16:15.355Z,22.57
2019-02-08T11:18:56.536Z,23.40
2019-02-08T11:21:26.995Z,78.50
2019-02-08T11:23:57.488Z,37.83
2019-02-08T11:26:28.344Z,27.43
2019-02-08T11:28:58.802Z,25.93
2019-02-08T11:31:29.380Z,23.43
2019-02-08T11:33:59.927Z,25.00
2019-02-08T11:36:30.742Z,23.70
2019-02-08T11:39:01.205Z,25.50
2019-02-08T11:41:31.828Z,26.07
2019-02-08T11:44:02.363Z,24.83
2019-02-08T11:46:32.933Z,23.07
2019-02-08T11:49:03.387Z,23.60
2019-02-08T11:51:34.057Z,25.37
2019-02-08T11:54:05.351Z,56.50
2019-02-08T11:56:35.917Z,60.33
2019-02-08T11:59:06.811Z,28.43
2019-02-08T12:01:39.094Z,24.30
2019-02-08T12:04:09.583Z,25.07
2019-02-08T12:06:40.139Z,25.70
2019-02-08T12:09:14.513Z,22.97
2019-02-08T12:11:45.068Z,25.47
2019-02-08T12:14:15.634Z,24.90
2019-02-08T12:16:46.092Z,24.47
2019-02-08T12:19:16.579Z,27.53
2019-02-08T12:21:47.070Z,28.80
2019-02-08T12:24:17.648Z,26.57
2019-02-08T12:26:48.108Z,26.40
2019-02-08T12:29:18.696Z,28.20
2019-02-08T12:31:49.156Z,25.50
2019-02-08T12:34:19.640Z,23.97
2019-02-08T12:36:50.285Z,26.40
2019-02-08T12:39:20.816Z,26.00
2019-02-08T12:41:51.309Z,27.10
2019-02-08T12:44:21.837Z,28.10
2019-02-08T12:46:52.337Z,27.47
2019-02-08T12:49:22.792Z,28.27
2019-02-08T12:51:53.297Z,27.30
2019-02-08T12:54:23.824Z,27.93
2019-02-08T12:56:54.302Z,27.30
2019-02-08T12:59:24.874Z,24.00
2019-02-08T13:01:55.334Z,24.33
2019-02-08T13:04:26.265Z,24.03
2019-02-08T13:06:56.732Z,25.50
2019-02-08T13:09:27.295Z,23.23
2019-02-08T13:11:57.768Z,22.93
2019-02-08T13:14:28.282Z,22.47
2019-02-08T13:16:58.742Z,23.20
2019-02-08T13:19:29.234Z,24.30
2019-02-08T13:21:59.689Z,25.30
2019-02-08T13:24:31.443Z,25.03
2019-02-08T13:27:01.925Z,27.07
2019-02-08T13:29:32.392Z,25.87
2019-02-08T13:32:02.952Z,25.47
2019-02-08T13:34:33.420Z,26.13
2019-02-08T13:37:03.997Z,26.40
2019-02-08T13:39:35.460Z,24.80
2019-02-08T13:42:06.152Z,25.27
2019-02-08T13:44:36.570Z,24.50
2019-02-08T13:47:07.261Z,24.50
2019-02-08T13:49:37.733Z,24.00
2019-02-08T13:52:08.228Z,24.43
2019-02-08T13:54:38.688Z,27.20
2019-02-08T13:57:09.184Z,25.03
2019-02-08T13:59:39.654Z,24.83
2019-02-08T14:02:10.223Z,25.53
2019-02-08T14:04:40.703Z,24.90
2019-02-08T14:07:11.184Z,25.83
2019-02-08T14:09:41.655Z,25.10
2019-02-08T14:12:12.147Z,26.07
2019-02-08T14:14:42.633Z,25.47
2019-02-08T14:17:13.199Z,26.23
2019-02-08T14:19:43.729Z,26.23
2019-02-08T14:22:26.760Z,25.67
2019-02-08T14:24:57.214Z,26.07
2019-02-08T14:27:27.707Z,26.13
2019-02-08T14:29:58.173Z,27.10
2019-02-08T14:32:28.663Z,27.67
2019-02-08T14:34:59.118Z,26.37
2019-02-08T14:37:29.612Z,25.47
2019-02-08T14:40:00.094Z,26.20
2019-02-08T14:42:30.725Z,26.80
2019-02-08T14:45:02.720Z,25.60
2019-02-08T14:47:33.213Z,27.57
2019-02-08T14:50:04.983Z,30.07
2019-02-08T14:52:35.569Z,27.90
2019-02-08T14:55:09.814Z,26.63
2019-02-08T14:57:41.483Z,28.77
2019-02-08T15:00:16.360Z,27.93
2019-02-08T15:02:46.916Z,27.57
2019-02-08T15:05:19.903Z,25.90
2019-02-08T15:07:50.809Z,31.60
2019-02-08T15:10:40.538Z,30.63
2019-02-08T15:13:11.336Z,31.40
2019-02-08T15:15:41.922Z,29.00
2019-02-08T15:18:12.653Z,32.70
2019-02-08T15:20:43.126Z,31.70
2019-02-08T15:23:13.695Z,32.43
2019-02-08T15:25:44.335Z,33.10
2019-02-08T15:28:14.802Z,35.43
2019-02-08T15:30:45.288Z,34.20
2019-02-08T15:33:15.787Z,72.93
2019-02-08T15:35:46.268Z,83.80
2019-02-08T15:38:16.773Z,49.90
2019-02-08T15:40:50.948Z,36.30
2019-02-08T15:43:22.813Z,33.80
2019-02-08T15:45:57.444Z,31.37
2019-02-08T15:48:31.876Z,31.17
2019-02-08T15:51:02.478Z,33.03
2019-02-08T15:53:33.641Z,31.43
2019-02-08T15:56:11.652Z,35.13
2019-02-08T15:58:42.222Z,36.60
2019-02-08T16:01:12.923Z,38.53
2019-02-08T16:03:43.456Z,38.93
2019-02-08T16:06:14.087Z,40.80
2019-02-08T16:08:44.641Z,39.90
2019-02-08T16:11:15.768Z,40.17
2019-02-08T16:13:46.296Z,39.03
2019-02-08T16:16:17.029Z,41.87
2019-02-08T16:18:48.819Z,41.93
2019-02-08T16:21:19.383Z,44.10
2019-02-08T16:23:49.841Z,44.93
2019-02-08T16:26:20.420Z,51.87
2019-02-08T16:28:50.895Z,53.97
2019-02-08T16:31:21.389Z,55.20
2019-02-08T16:33:51.855Z,53.40
2019-02-08T16:36:22.429Z,48.63
2019-02-08T16:38:52.960Z,52.80
2019-02-08T16:41:23.524Z,52.37
2019-02-08T16:43:53.992Z,52.07
2019-02-08T16:46:24.579Z,51.87
2019-02-08T16:48:55.098Z,53.07
2019-02-08T16:51:25.660Z,55.27
2019-02-08T16:53:56.221Z,50.60
2019-02-08T16:56:26.753Z,56.70
2019-02-08T16:58:57.329Z,57.93
2019-02-08T17:01:27.834Z,53.43
2019-02-08T17:03:59.866Z,41.50
2019-02-08T17:06:30.757Z,35.77
2019-02-08T17:09:01.211Z,31.77
2019-02-08T17:11:31.704Z,36.50
2019-02-08T17:14:02.196Z,35.90
2019-02-08T17:16:32.666Z,37.30
2019-02-08T17:19:03.160Z,40.47
2019-02-08T17:21:34.951Z,38.60
2019-02-08T17:24:05.691Z,37.03
2019-02-08T17:26:36.257Z,40.60
2019-02-08T17:29:06.789Z,44.07
2019-02-08T17:31:37.289Z,40.73
2019-02-08T17:34:09.178Z,44.07
2019-02-08T17:36:39.689Z,39.57
2019-02-08T17:39:11.681Z,42.03
2019-02-08T17:41:42.181Z,39.37
2019-02-08T17:44:12.738Z,41.60
2019-02-08T17:46:43.242Z,39.90
2019-02-08T17:49:13.802Z,39.47
2019-02-08T17:51:44.309Z,36.80
2019-02-08T17:54:17.142Z,38.00
2019-02-08T17:56:47.603Z,39.00
2019-02-08T17:59:18.136Z,39.20
2019-02-08T18:01:48.680Z,37.83
2019-02-08T18:04:19.187Z,39.23
2019-02-08T18:06:49.683Z,37.57
2019-02-08T18:09:20.262Z,36.10
2019-02-08T18:11:51.701Z,39.40
2019-02-08T18:14:23.135Z,37.53
2019-02-08T18:16:53.618Z,39.13
2019-02-08T18:19:25.674Z,36.87
2019-02-08T18:21:56.939Z,39.27
2019-02-08T18:24:27.515Z,40.67
2019-02-08T18:26:57.989Z,38.43
2019-02-08T18:29:29.171Z,38.00
2019-02-08T18:31:59.698Z,38.97
2019-02-08T18:34:30.166Z,37.47
2019-02-08T18:37:00.742Z,36.60
2019-02-08T18:39:31.269Z,38.87
2019-02-08T18:42:01.771Z,37.80
2019-02-08T18:44:32.310Z,35.70
2019-02-08T18:47:04.449Z,38.13
2019-02-08T18:49:36.639Z,36.47
2019-02-08T18:52:07.192Z,35.77
2019-02-08T18:54:37.689Z,35.63
2019-02-08T18:57:08.949Z,37.27
2019-02-08T18:59:39.855Z,39.00
2019-02-08T19:02:10.549Z,32.90
2019-02-08T19:04:41.043Z,33.27
2019-02-08T19:07:12.277Z,33.40
2019-02-08T19:09:42.804Z,33.00
2019-02-08T19:12:13.253Z,32.63
2019-02-08T19:14:43.823Z,33.53
2019-02-08T19:17:14.295Z,33.27
2019-02-08T19:19:44.817Z,33.83
2019-02-08T19:22:17.087Z,36.17
2019-02-08T19:24:47.568Z,35.33
2019-02-08T19:27:18.063Z,33.73
2019-02-08T19:29:48.534Z,37.87
2019-02-08T19:32:20.519Z,35.43
2019-02-08T19:34:52.436Z,33.00
2019-02-08T19:37:25.650Z,35.30
2019-02-08T19:39:56.144Z,33.70
2019-02-08T19:42:26.660Z,31.83
2019-02-08T19:44:58.040Z,33.50
2019-02-08T19:47:29.887Z,33.30
2019-02-08T19:50:00.410Z,35.90
2019-02-08T19:52:31.014Z,34.07
2019-02-08T19:55:01.548Z,35.50
2019-02-08T19:57:33.669Z,33.90
2019-02-08T20:00:09.068Z,33.20
2019-02-08T20:02:39.642Z,31.47
2019-02-08T20:05:15.230Z,32.97
2019-02-08T20:07:45.890Z,32.60
2019-02-08T20:10:20.810Z,32.17
2019-02-08T20:12:51.384Z,32.00
2019-02-08T20:15:22.230Z,29.53
2019-02-08T20:17:52.784Z,30.80
2019-02-08T20:20:23.352Z,33.50
2019-02-08T20:22:53.932Z,33.03
2019-02-08T20:25:32.205Z,35.00
2019-02-08T20:28:02.797Z,33.23
2019-02-08T20:30:33.625Z,33.23
2019-02-08T20:33:05.725Z,34.77
2019-02-08T20:35:36.361Z,35.83
2019-02-08T20:38:07.474Z,37.70
2019-02-08T20:40:42.283Z,36.90
2019-02-08T20:43:12.807Z,36.00
2019-02-08T20:45:43.302Z,36.40
2019-02-08T20:48:20.849Z,34.80
2019-02-08T20:50:53.159Z,36.60
2019-02-08T20:53:23.878Z,37.87
2019-02-08T20:55:54.824Z,37.50
2019-02-08T20:58:25.298Z,36.90
2019-02-08T21:00:55.809Z,36.33
2019-02-08T21:03:26.344Z,35.00
2019-02-08T21:05:56.919Z,36.00
2019-02-08T21:08:27.529Z,37.00
2019-02-08T21:10:58.115Z,40.37
2019-02-08T21:13:28.627Z,37.30
2019-02-08T21:15:59.110Z,35.60
2019-02-08T21:18:29.607Z,36.53
2019-02-08T21:21:00.126Z,37.37
2019-02-08T21:23:31.698Z,36.33
2019-02-08T21:26:02.255Z,41.10
2019-02-08T21:28:32.893Z,44.57
2019-02-08T21:31:03.417Z,45.00
2019-02-08T21:33:33.934Z,46.70
2019-02-08T21:36:04.672Z,41.37
2019-02-08T21:38:35.185Z,43.60
2019-02-08T21:41:06.507Z,42.40
2019-02-08T21:43:37.014Z,39.57
2019-02-08T21:46:07.594Z,42.00
2019-02-08T21:48:38.068Z,40.50
2019-02-08T21:51:08.638Z,38.57
2019-02-08T21:53:39.140Z,40.57
2019-02-08T21:56:09.755Z,41.00
2019-02-08T21:58:40.235Z,42.10
2019-02-08T22:01:12.012Z,41.60
2019-02-08T22:03:42.520Z,39.07
2019-02-08T22:06:12.982Z,39.07
2019-02-08T22:08:43.488Z,39.70
2019-02-08T22:11:13.965Z,38.37
2019-02-08T22:13:44.470Z,41.20
2019-02-08T22:16:15.021Z,41.37
2019-02-08T22:18:45.526Z,39.87
2019-02-08T22:21:16.083Z,41.97
2019-02-08T22:23:46.582Z,39.83
2019-02-08T22:26:17.081Z,39.17
2019-02-08T22:28:47.585Z,39.37
2019-02-08T22:31:18.065Z,39.80
2019-02-08T22:33:48.564Z,37.70
2019-02-08T22:36:19.118Z,42.33
2019-02-08T22:38:49.626Z,38.50
2019-02-08T22:41:20.757Z,40.00
2019-02-08T22:43:51.272Z,39.90
2019-02-08T22:46:21.736Z,37.87
2019-02-08T22:48:52.233Z,39.87
2019-02-08T22:51:22.707Z,38.37
2019-02-08T22:53:53.683Z,38.90
2019-02-08T22:56:24.153Z,40.33
2019-02-08T22:58:54.674Z,36.87
2019-02-08T23:01:29.893Z,39.80
2019-02-08T23:04:00.803Z,38.70
2019-02-08T23:06:31.913Z,38.37
2019-02-08T23:09:02.478Z,39.80
2019-02-08T23:11:33.093Z,42.10
2019-02-08T23:14:04.432Z,41.07
2019-02-08T23:16:34.934Z,43.77
2019-02-08T23:19:05.980Z,42.50
2019-02-08T23:21:36.486Z,41.87
2019-02-08T23:24:07.185Z,43.30
2019-02-08T23:26:37.769Z,44.53
2019-02-08T23:29:08.244Z,43.83
2019-02-08T23:31:38.754Z,41.80
2019-02-08T23:34:09.288Z,44.47
2019-02-08T23:36:39.865Z,45.70
2019-02-08T23:39:12.371Z,46.30
2019-02-08T23:41:42.879Z,39.33
2019-02-08T23:44:13.346Z,42.27
2019-02-08T23:46:43.895Z,43.70
2019-02-08T23:49:14.363Z,42.43
2019-02-08T23:51:44.942Z,40.80
2019-02-08T23:54:15.447Z,39.70
2019-02-08T23:56:45.930Z,41.90
2019-02-08T23:59:16.434Z,41.70
